EGXV

RAF Leconfield Airport

Leconfield, United Kingdom
METAR EGXV 160550Z AUTO 22009KT 9999 NCD 05/03 Q1000
Observed Flight Rules
Dec-16 @ 05:50 UTC (22 minutes ago) Visual Flight Rules
Wind Visibility Clouds
220° at 9 knots 10,000+ meters
  • Clear skies
Temperatures Readings
Current 5°C / 41°F
Dewpoint 3°C / 37°F
Humidity 87%
Altimeter 29.53" Hg
Pressure 1000 hPa
Elevation 6
METAR EGXV 160550Z AUTO 22009KT 9999 NCD 05/03 Q1000
Observed Flight Rules
Dec-16 @ 05:50 UTC
(22 minutes ago)
VFR
Wind Visibility
220° at 9 knots 10,000+ meters
Clouds
  • Clear skies
Temperature Dewpoint
5°C / 41°F 3°C / 37°F
Humidity Altimeter Pressure
87% 29.53" Hg 1000 hPa